sensor_id;sensor_type;location;lat;lon;timestamp;temperature;humidity
262;DHT22;114;48.260;10.988;2023-04-25T00:01:21;6.50;49.00
262;DHT22;114;48.260;10.988;2023-04-25T00:03:49;6.50;49.50
262;DHT22;114;48.260;10.988;2023-04-25T00:06:15;6.60;49.10
262;DHT22;114;48.260;10.988;2023-04-25T00:08:43;6.50;48.60
262;DHT22;114;48.260;10.988;2023-04-25T00:11:09;6.50;48.90
262;DHT22;114;48.260;10.988;2023-04-25T00:13:35;6.50;49.00
262;DHT22;114;48.260;10.988;2023-04-25T00:16:01;6.50;49.00
262;DHT22;114;48.260;10.988;2023-04-25T00:18:28;6.40;48.90
262;DHT22;114;48.260;10.988;2023-04-25T00:20:55;6.40;49.70
262;DHT22;114;48.260;10.988;2023-04-25T00:23:21;6.30;49.90
262;DHT22;114;48.260;10.988;2023-04-25T00:25:48;6.30;50.90
262;DHT22;114;48.260;10.988;2023-04-25T00:28:14;6.20;52.70
262;DHT22;114;48.260;10.988;2023-04-25T00:30:40;6.10;53.60
262;DHT22;114;48.260;10.988;2023-04-25T00:33:06;6.10;54.20
262;DHT22;114;48.260;10.988;2023-04-25T00:35:33;6.00;55.60
262;DHT22;114;48.260;10.988;2023-04-25T00:37:58;6.00;55.90
262;DHT22;114;48.260;10.988;2023-04-25T00:40:24;6.00;56.30
262;DHT22;114;48.260;10.988;2023-04-25T00:42:52;5.90;56.80
262;DHT22;114;48.260;10.988;2023-04-25T00:45:18;5.90;57.70
262;DHT22;114;48.260;10.988;2023-04-25T00:47:45;5.80;58.60
262;DHT22;114;48.260;10.988;2023-04-25T00:50:12;5.80;58.70
262;DHT22;114;48.260;10.988;2023-04-25T00:52:43;5.80;61.20
262;DHT22;114;48.260;10.988;2023-04-25T00:55:10;5.70;60.50
262;DHT22;114;48.260;10.988;2023-04-25T00:57:36;5.70;61.70
262;DHT22;114;48.260;10.988;2023-04-25T01:00:04;5.70;61.90
262;DHT22;114;48.260;10.988;2023-04-25T01:02:32;5.60;60.80
262;DHT22;114;48.260;10.988;2023-04-25T01:04:58;5.60;62.80
262;DHT22;114;48.260;10.988;2023-04-25T01:07:24;5.60;63.40
262;DHT22;114;48.260;10.988;2023-04-25T01:09:52;5.50;63.30
262;DHT22;114;48.260;10.988;2023-04-25T01:12:18;5.40;64.50
262;DHT22;114;48.260;10.988;2023-04-25T01:14:44;5.20;66.40
262;DHT22;114;48.260;10.988;2023-04-25T01:17:11;5.20;68.90
262;DHT22;114;48.260;10.988;2023-04-25T01:19:36;5.20;70.10
262;DHT22;114;48.260;10.988;2023-04-25T01:22:03;5.20;71.30
262;DHT22;114;48.260;10.988;2023-04-25T01:24:31;5.20;72.40
262;DHT22;114;48.260;10.988;2023-04-25T01:26:58;5.20;72.50
262;DHT22;114;48.260;10.988;2023-04-25T01:29:26;5.10;73.30
262;DHT22;114;48.260;10.988;2023-04-25T01:31:53;5.10;74.00
262;DHT22;114;48.260;10.988;2023-04-25T01:34:19;5.00;74.70
262;DHT22;114;48.260;10.988;2023-04-25T01:36:45;5.00;76.10
262;DHT22;114;48.260;10.988;2023-04-25T01:39:11;4.90;77.30
262;DHT22;114;48.260;10.988;2023-04-25T01:41:37;4.90;78.30
262;DHT22;114;48.260;10.988;2023-04-25T01:44:03;4.90;78.70
262;DHT22;114;48.260;10.988;2023-04-25T01:46:30;4.90;79.50
262;DHT22;114;48.260;10.988;2023-04-25T01:48:56;4.90;78.80
262;DHT22;114;48.260;10.988;2023-04-25T01:51:22;4.80;79.00
262;DHT22;114;48.260;10.988;2023-04-25T01:53:47;4.80;78.10
262;DHT22;114;48.260;10.988;2023-04-25T01:56:13;4.80;77.70
262;DHT22;114;48.260;10.988;2023-04-25T01:58:39;4.80;78.60
262;DHT22;114;48.260;10.988;2023-04-25T02:01:05;4.80;78.00
262;DHT22;114;48.260;10.988;2023-04-25T02:03:31;4.90;78.20
262;DHT22;114;48.260;10.988;2023-04-25T02:05:57;4.90;77.10
262;DHT22;114;48.260;10.988;2023-04-25T02:08:23;4.90;77.10
262;DHT22;114;48.260;10.988;2023-04-25T02:10:51;4.90;78.30
262;DHT22;114;48.260;10.988;2023-04-25T02:13:17;4.90;77.50
262;DHT22;114;48.260;10.988;2023-04-25T02:15:42;5.00;77.30
262;DHT22;114;48.260;10.988;2023-04-25T02:18:08;5.00;76.70
262;DHT22;114;48.260;10.988;2023-04-25T02:20:36;5.00;76.50
262;DHT22;114;48.260;10.988;2023-04-25T02:23:02;5.10;76.90
262;DHT22;114;48.260;10.988;2023-04-25T02:25:28;5.10;76.20
262;DHT22;114;48.260;10.988;2023-04-25T02:27:54;5.20;72.90
262;DHT22;114;48.260;10.988;2023-04-25T02:30:20;5.30;69.90
262;DHT22;114;48.260;10.988;2023-04-25T02:32:46;5.40;68.10
262;DHT22;114;48.260;10.988;2023-04-25T02:35:12;5.40;67.10
262;DHT22;114;48.260;10.988;2023-04-25T02:37:39;5.50;66.60
262;DHT22;114;48.260;10.988;2023-04-25T02:40:10;5.80;64.80
262;DHT22;114;48.260;10.988;2023-04-25T02:42:36;6.00;60.70
262;DHT22;114;48.260;10.988;2023-04-25T02:45:02;6.10;58.90
262;DHT22;114;48.260;10.988;2023-04-25T02:47:28;6.20;56.40
262;DHT22;114;48.260;10.988;2023-04-25T02:49:54;6.20;55.10
262;DHT22;114;48.260;10.988;2023-04-25T02:52:20;6.20;53.00
262;DHT22;114;48.260;10.988;2023-04-25T02:54:46;6.30;52.40
262;DHT22;114;48.260;10.988;2023-04-25T02:57:12;6.30;52.00
262;DHT22;114;48.260;10.988;2023-04-25T02:59:38;6.30;52.20
262;DHT22;114;48.260;10.988;2023-04-25T03:02:04;6.30;52.60
262;DHT22;114;48.260;10.988;2023-04-25T03:04:30;6.30;52.20
262;DHT22;114;48.260;10.988;2023-04-25T03:06:55;6.30;53.90
262;DHT22;114;48.260;10.988;2023-04-25T03:09:21;6.30;53.20
262;DHT22;114;48.260;10.988;2023-04-25T03:11:47;6.30;52.40
262;DHT22;114;48.260;10.988;2023-04-25T03:14:13;6.30;52.40
262;DHT22;114;48.260;10.988;2023-04-25T03:16:39;6.30;50.90
262;DHT22;114;48.260;10.988;2023-04-25T03:19:05;6.20;50.30
262;DHT22;114;48.260;10.988;2023-04-25T03:21:32;6.20;47.10
262;DHT22;114;48.260;10.988;2023-04-25T03:23:59;6.20;48.60
262;DHT22;114;48.260;10.988;2023-04-25T03:26:25;6.30;46.00
262;DHT22;114;48.260;10.988;2023-04-25T03:28:51;6.30;39.40
262;DHT22;114;48.260;10.988;2023-04-25T03:31:16;6.30;38.80
262;DHT22;114;48.260;10.988;2023-04-25T03:33:42;6.30;35.90
262;DHT22;114;48.260;10.988;2023-04-25T03:36:08;6.40;30.40
262;DHT22;114;48.260;10.988;2023-04-25T03:38:35;6.40;29.50
262;DHT22;114;48.260;10.988;2023-04-25T03:41:01;6.30;29.10
262;DHT22;114;48.260;10.988;2023-04-25T03:43:27;6.30;28.20
262;DHT22;114;48.260;10.988;2023-04-25T03:45:53;6.40;26.80
262;DHT22;114;48.260;10.988;2023-04-25T03:48:19;6.40;25.80
262;DHT22;114;48.260;10.988;2023-04-25T03:50:47;6.40;24.80
262;DHT22;114;48.260;10.988;2023-04-25T03:53:13;6.30;26.00
262;DHT22;114;48.260;10.988;2023-04-25T03:55:38;6.30;27.10
262;DHT22;114;48.260;10.988;2023-04-25T03:58:04;6.30;27.20
262;DHT22;114;48.260;10.988;2023-04-25T04:00:30;6.30;27.30
262;DHT22;114;48.260;10.988;2023-04-25T04:02:56;6.20;28.30
262;DHT22;114;48.260;10.988;2023-04-25T04:05:22;6.10;29.50
262;DHT22;114;48.260;10.988;2023-04-25T04:07:48;6.20;30.10
262;DHT22;114;48.260;10.988;2023-04-25T04:10:14;6.20;30.10
262;DHT22;114;48.260;10.988;2023-04-25T04:12:40;6.20;30.00
262;DHT22;114;48.260;10.988;2023-04-25T04:15:06;6.20;32.40
262;DHT22;114;48.260;10.988;2023-04-25T04:17:32;6.20;33.30
262;DHT22;114;48.260;10.988;2023-04-25T04:19:58;6.20;33.20
262;DHT22;114;48.260;10.988;2023-04-25T04:22:24;6.20;34.00
262;DHT22;114;48.260;10.988;2023-04-25T04:24:50;6.20;34.70
262;DHT22;114;48.260;10.988;2023-04-25T04:27:17;6.20;35.00
262;DHT22;114;48.260;10.988;2023-04-25T04:29:44;6.20;35.40
262;DHT22;114;48.260;10.988;2023-04-25T04:32:10;6.20;36.60
262;DHT22;114;48.260;10.988;2023-04-25T04:34:36;6.20;39.20
262;DHT22;114;48.260;10.988;2023-04-25T04:37:02;6.20;40.40
262;DHT22;114;48.260;10.988;2023-04-25T04:39:29;6.20;42.60
262;DHT22;114;48.260;10.988;2023-04-25T04:41:55;6.20;44.60
262;DHT22;114;48.260;10.988;2023-04-25T04:44:20;6.10;45.70
262;DHT22;114;48.260;10.988;2023-04-25T04:46:46;6.20;49.10
262;DHT22;114;48.260;10.988;2023-04-25T04:49:12;6.20;48.50
262;DHT22;114;48.260;10.988;2023-04-25T04:51:39;6.20;49.40
262;DHT22;114;48.260;10.988;2023-04-25T04:54:09;6.20;50.70
262;DHT22;114;48.260;10.988;2023-04-25T04:56:35;6.20;51.50
262;DHT22;114;48.260;10.988;2023-04-25T04:59:01;6.20;54.20
262;DHT22;114;48.260;10.988;2023-04-25T05:01:28;6.20;57.30
262;DHT22;114;48.260;10.988;2023-04-25T05:03:55;6.30;58.10
262;DHT22;114;48.260;10.988;2023-04-25T05:06:26;6.20;59.30
262;DHT22;114;48.260;10.988;2023-04-25T05:08:52;6.30;59.40
262;DHT22;114;48.260;10.988;2023-04-25T05:11:18;6.30;58.00
262;DHT22;114;48.260;10.988;2023-04-25T05:13:44;6.30;58.00
262;DHT22;114;48.260;10.988;2023-04-25T05:16:11;6.30;62.30
262;DHT22;114;48.260;10.988;2023-04-25T05:18:37;6.30;64.80
262;DHT22;114;48.260;10.988;2023-04-25T05:21:02;6.40;63.40
262;DHT22;114;48.260;10.988;2023-04-25T05:23:28;6.20;61.00
262;DHT22;114;48.260;10.988;2023-04-25T05:25:55;6.30;64.80
262;DHT22;114;48.260;10.988;2023-04-25T05:28:21;6.40;64.20
262;DHT22;114;48.260;10.988;2023-04-25T05:30:47;6.30;66.10
262;DHT22;114;48.260;10.988;2023-04-25T05:33:13;6.30;65.70
262;DHT22;114;48.260;10.988;2023-04-25T05:35:38;6.40;67.20
262;DHT22;114;48.260;10.988;2023-04-25T05:38:04;6.50;64.20
262;DHT22;114;48.260;10.988;2023-04-25T05:40:30;6.70;64.70
262;DHT22;114;48.260;10.988;2023-04-25T05:42:55;6.80;57.20
262;DHT22;114;48.260;10.988;2023-04-25T05:45:21;7.00;57.30
262;DHT22;114;48.260;10.988;2023-04-25T05:47:47;7.20;50.90
262;DHT22;114;48.260;10.988;2023-04-25T05:50:12;7.30;47.20
262;DHT22;114;48.260;10.988;2023-04-25T05:52:38;7.40;46.00
262;DHT22;114;48.260;10.988;2023-04-25T05:55:04;7.50;42.50
262;DHT22;114;48.260;10.988;2023-04-25T05:57:31;7.40;46.30
262;DHT22;114;48.260;10.988;2023-04-25T05:59:56;7.30;49.70
262;DHT22;114;48.260;10.988;2023-04-25T06:02:22;7.40;44.90
262;DHT22;114;48.260;10.988;2023-04-25T06:04:49;7.50;45.30
262;DHT22;114;48.260;10.988;2023-04-25T06:07:15;7.40;45.90
262;DHT22;114;48.260;10.988;2023-04-25T06:09:41;7.40;47.20
262;DHT22;114;48.260;10.988;2023-04-25T06:12:07;7.30;47.60
262;DHT22;114;48.260;10.988;2023-04-25T06:14:33;7.10;47.60
262;DHT22;114;48.260;10.988;2023-04-25T06:16:59;7.10;49.50
262;DHT22;114;48.260;10.988;2023-04-25T06:19:25;7.10;49.50
262;DHT22;114;48.260;10.988;2023-04-25T06:21:50;7.10;49.50
262;DHT22;114;48.260;10.988;2023-04-25T06:24:16;7.30;49.20
262;DHT22;114;48.260;10.988;2023-04-25T06:26:42;7.30;42.60
262;DHT22;114;48.260;10.988;2023-04-25T06:29:07;7.30;42.90
262;DHT22;114;48.260;10.988;2023-04-25T06:31:33;7.30;44.50
262;DHT22;114;48.260;10.988;2023-04-25T06:33:59;7.30;43.90
262;DHT22;114;48.260;10.988;2023-04-25T06:36:24;7.30;43.50
262;DHT22;114;48.260;10.988;2023-04-25T06:38:51;7.30;41.40
262;DHT22;114;48.260;10.988;2023-04-25T06:41:20;7.30;37.00
262;DHT22;114;48.260;10.988;2023-04-25T06:43:46;7.60;37.60
262;DHT22;114;48.260;10.988;2023-04-25T06:46:12;7.90;32.20
262;DHT22;114;48.260;10.988;2023-04-25T06:48:38;8.10;29.10
262;DHT22;114;48.260;10.988;2023-04-25T06:51:03;8.20;27.30
262;DHT22;114;48.260;10.988;2023-04-25T06:53:29;8.30;25.20
262;DHT22;114;48.260;10.988;2023-04-25T06:55:55;8.30;24.70
262;DHT22;114;48.260;10.988;2023-04-25T06:58:20;8.60;22.50
262;DHT22;114;48.260;10.988;2023-04-25T07:00:46;8.70;19.80
262;DHT22;114;48.260;10.988;2023-04-25T07:03:12;8.70;16.50
262;DHT22;114;48.260;10.988;2023-04-25T07:05:37;8.60;18.10
262;DHT22;114;48.260;10.988;2023-04-25T07:08:03;8.40;17.00
262;DHT22;114;48.260;10.988;2023-04-25T07:10:29;8.30;20.30
262;DHT22;114;48.260;10.988;2023-04-25T07:12:55;8.30;21.60
262;DHT22;114;48.260;10.988;2023-04-25T07:15:21;8.30;21.20
262;DHT22;114;48.260;10.988;2023-04-25T07:17:46;8.20;18.60
262;DHT22;114;48.260;10.988;2023-04-25T07:20:12;8.10;22.80
262;DHT22;114;48.260;10.988;2023-04-25T07:22:38;8.00;25.20
262;DHT22;114;48.260;10.988;2023-04-25T07:25:04;8.10;24.30
262;DHT22;114;48.260;10.988;2023-04-25T07:27:30;8.00;25.80
262;DHT22;114;48.260;10.988;2023-04-25T07:29:56;8.10;25.10
262;DHT22;114;48.260;10.988;2023-04-25T07:32:22;8.30;18.00
262;DHT22;114;48.260;10.988;2023-04-25T07:34:48;8.40;19.20
262;DHT22;114;48.260;10.988;2023-04-25T07:37:14;8.70;19.50
262;DHT22;114;48.260;10.988;2023-04-25T07:39:40;8.80;13.60
262;DHT22;114;48.260;10.988;2023-04-25T07:42:06;8.90;9.70
262;DHT22;114;48.260;10.988;2023-04-25T07:44:34;8.90;6.70
262;DHT22;114;48.260;10.988;2023-04-25T07:47:05;8.80;10.30
262;DHT22;114;48.260;10.988;2023-04-25T07:49:33;8.70;9.60
262;DHT22;114;48.260;10.988;2023-04-25T07:52:00;8.70;10.40
262;DHT22;114;48.260;10.988;2023-04-25T07:54:26;8.60;8.50
262;DHT22;114;48.260;10.988;2023-04-25T07:56:51;8.70;7.90
262;DHT22;114;48.260;10.988;2023-04-25T07:59:17;9.00;8.90
262;DHT22;114;48.260;10.988;2023-04-25T08:01:43;9.10;1.40
262;DHT22;114;48.260;10.988;2023-04-25T08:04:08;9.20;3.00
262;DHT22;114;48.260;10.988;2023-04-25T08:06:34;9.40;4.80
262;DHT22;114;48.260;10.988;2023-04-25T08:09:00;9.60;1.00
262;DHT22;114;48.260;10.988;2023-04-25T08:11:26;9.70;1.00
262;DHT22;114;48.260;10.988;2023-04-25T08:13:51;9.80;1.00
262;DHT22;114;48.260;10.988;2023-04-25T08:16:17;10.00;1.00
262;DHT22;114;48.260;10.988;2023-04-25T08:18:43;10.20;1.00
262;DHT22;114;48.260;10.988;2023-04-25T08:21:08;10.30;1.00
262;DHT22;114;48.260;10.988;2023-04-25T08:23:37;10.60;1.00
262;DHT22;114;48.260;10.988;2023-04-25T08:26:03;10.50;1.00
262;DHT22;114;48.260;10.988;2023-04-25T08:28:28;10.50;1.00
262;DHT22;114;48.260;10.988;2023-04-25T08:30:54;10.50;1.00
262;DHT22;114;48.260;10.988;2023-04-25T08:33:20;10.40;1.00
262;DHT22;114;48.260;10.988;2023-04-25T08:35:45;10.60;1.00
262;DHT22;114;48.260;10.988;2023-04-25T08:38:11;10.90;1.00
262;DHT22;114;48.260;10.988;2023-04-25T08:40:39;10.80;1.00
262;DHT22;114;48.260;10.988;2023-04-25T08:43:06;10.70;1.00
262;DHT22;114;48.260;10.988;2023-04-25T08:45:39;10.40;1.00
262;DHT22;114;48.260;10.988;2023-04-25T08:48:11;10.50;1.00
262;DHT22;114;48.260;10.988;2023-04-25T08:50:43;10.80;1.00
262;DHT22;114;48.260;10.988;2023-04-25T08:53:12;10.90;1.00
262;DHT22;114;48.260;10.988;2023-04-25T08:55:42;11.00;1.00
262;DHT22;114;48.260;10.988;2023-04-25T08:58:09;11.20;1.00
262;DHT22;114;48.260;10.988;2023-04-25T09:00:36;11.30;1.00
262;DHT22;114;48.260;10.988;2023-04-25T09:03:01;11.70;1.00
262;DHT22;114;48.260;10.988;2023-04-25T09:05:28;12.40;1.00
262;DHT22;114;48.260;10.988;2023-04-25T09:07:54;12.70;1.00
262;DHT22;114;48.260;10.988;2023-04-25T09:10:22;11.70;1.00
262;DHT22;114;48.260;10.988;2023-04-25T09:15:31;11.40;1.00
262;DHT22;114;48.260;10.988;2023-04-25T09:17:57;11.10;1.00
262;DHT22;114;48.260;10.988;2023-04-25T09:20:23;10.90;1.00
262;DHT22;114;48.260;10.988;2023-04-25T09:23:01;10.90;1.00
262;DHT22;114;48.260;10.988;2023-04-25T09:25:36;10.90;1.00
262;DHT22;114;48.260;10.988;2023-04-25T09:28:05;11.00;1.00
262;DHT22;114;48.260;10.988;2023-04-25T09:30:35;10.90;1.00
262;DHT22;114;48.260;10.988;2023-04-25T09:33:05;10.80;1.00
262;DHT22;114;48.260;10.988;2023-04-25T09:35:42;10.90;1.00
262;DHT22;114;48.260;10.988;2023-04-25T09:38:13;10.80;1.00
262;DHT22;114;48.260;10.988;2023-04-25T09:40:43;10.60;1.00
262;DHT22;114;48.260;10.988;2023-04-25T09:43:10;10.50;1.00
262;DHT22;114;48.260;10.988;2023-04-25T09:45:42;10.10;1.00
262;DHT22;114;48.260;10.988;2023-04-25T09:48:12;9.60;1.00
262;DHT22;114;48.260;10.988;2023-04-25T09:50:38;9.70;1.00
262;DHT22;114;48.260;10.988;2023-04-25T09:53:05;9.40;3.10
262;DHT22;114;48.260;10.988;2023-04-25T09:55:35;9.20;10.40
262;DHT22;114;48.260;10.988;2023-04-25T09:58:05;9.00;18.40
262;DHT22;114;48.260;10.988;2023-04-25T10:00:33;8.70;7.00
262;DHT22;114;48.260;10.988;2023-04-25T10:03:01;8.50;13.10
262;DHT22;114;48.260;10.988;2023-04-25T10:05:32;8.70;18.20
262;DHT22;114;48.260;10.988;2023-04-25T10:08:00;8.30;16.20
262;DHT22;114;48.260;10.988;2023-04-25T10:10:28;8.00;13.10
262;DHT22;114;48.260;10.988;2023-04-25T10:12:56;7.80;16.40
262;DHT22;114;48.260;10.988;2023-04-25T10:15:22;7.80;17.10
262;DHT22;114;48.260;10.988;2023-04-25T10:17:49;7.70;19.90
262;DHT22;114;48.260;10.988;2023-04-25T10:20:16;7.90;10.20
262;DHT22;114;48.260;10.988;2023-04-25T10:22:43;8.30;10.70
262;DHT22;114;48.260;10.988;2023-04-25T10:25:10;8.60;1.00
262;DHT22;114;48.260;10.988;2023-04-25T10:27:36;8.90;2.70
262;DHT22;114;48.260;10.988;2023-04-25T10:32:32;9.20;5.80
262;DHT22;114;48.260;10.988;2023-04-25T10:35:16;9.50;5.70
262;DHT22;114;48.260;10.988;2023-04-25T10:38:05;9.40;7.10
262;DHT22;114;48.260;10.988;2023-04-25T10:40:32;9.40;11.60
262;DHT22;114;48.260;10.988;2023-04-25T10:46:12;9.30;1.30
262;DHT22;114;48.260;10.988;2023-04-25T10:48:47;9.30;1.00
262;DHT22;114;48.260;10.988;2023-04-25T10:51:28;9.70;1.00
262;DHT22;114;48.260;10.988;2023-04-25T10:54:04;9.80;1.00
262;DHT22;114;48.260;10.988;2023-04-25T10:56:38;9.60;1.00
262;DHT22;114;48.260;10.988;2023-04-25T10:59:13;9.90;1.00
262;DHT22;114;48.260;10.988;2023-04-25T11:01:43;9.90;1.00
262;DHT22;114;48.260;10.988;2023-04-25T11:04:25;9.80;1.00
262;DHT22;114;48.260;10.988;2023-04-25T11:09:32;9.30;10.10
262;DHT22;114;48.260;10.988;2023-04-25T11:11:59;9.20;10.50
262;DHT22;114;48.260;10.988;2023-04-25T11:14:26;9.00;11.40
262;DHT22;114;48.260;10.988;2023-04-25T11:16:59;9.10;16.30
262;DHT22;114;48.260;10.988;2023-04-25T11:19:26;9.10;12.40
262;DHT22;114;48.260;10.988;2023-04-25T11:21:56;8.90;16.10
262;DHT22;114;48.260;10.988;2023-04-25T11:26:53;8.40;33.90
262;DHT22;114;48.260;10.988;2023-04-25T11:29:22;8.20;36.40
262;DHT22;114;48.260;10.988;2023-04-25T11:31:48;8.40;34.60
262;DHT22;114;48.260;10.988;2023-04-25T11:34:18;8.40;35.00
262;DHT22;114;48.260;10.988;2023-04-25T11:36:45;8.10;40.10
262;DHT22;114;48.260;10.988;2023-04-25T11:39:11;7.90;49.30
262;DHT22;114;48.260;10.988;2023-04-25T11:41:40;7.90;44.90
262;DHT22;114;48.260;10.988;2023-04-25T11:44:06;7.80;46.00
262;DHT22;114;48.260;10.988;2023-04-25T11:46:34;7.80;48.30
262;DHT22;114;48.260;10.988;2023-04-25T11:49:00;7.60;57.30
262;DHT22;114;48.260;10.988;2023-04-25T11:51:26;7.40;70.50
262;DHT22;114;48.260;10.988;2023-04-25T11:53:52;7.30;75.00
262;DHT22;114;48.260;10.988;2023-04-25T11:56:18;6.90;66.20
262;DHT22;114;48.260;10.988;2023-04-25T12:03:52;6.90;65.40
262;DHT22;114;48.260;10.988;2023-04-25T12:06:18;6.80;66.70
262;DHT22;114;48.260;10.988;2023-04-25T12:09:03;6.80;65.90
262;DHT22;114;48.260;10.988;2023-04-25T12:11:32;6.80;67.90
262;DHT22;114;48.260;10.988;2023-04-25T12:14:04;6.90;72.40
262;DHT22;114;48.260;10.988;2023-04-25T12:16:45;6.90;70.70
262;DHT22;114;48.260;10.988;2023-04-25T12:19:15;6.80;72.40
262;DHT22;114;48.260;10.988;2023-04-25T12:21:42;6.70;66.70
262;DHT22;114;48.260;10.988;2023-04-25T12:24:15;6.60;70.50
262;DHT22;114;48.260;10.988;2023-04-25T12:29:23;6.60;64.20
262;DHT22;114;48.260;10.988;2023-04-25T12:31:51;6.80;57.60
262;DHT22;114;48.260;10.988;2023-04-25T12:34:18;6.90;58.00
262;DHT22;114;48.260;10.988;2023-04-25T12:36:44;6.80;51.50
262;DHT22;114;48.260;10.988;2023-04-25T12:39:17;7.00;58.80
262;DHT22;114;48.260;10.988;2023-04-25T12:41:44;6.90;56.20
262;DHT22;114;48.260;10.988;2023-04-25T12:44:11;6.80;56.90
262;DHT22;114;48.260;10.988;2023-04-25T12:46:37;6.80;60.00
262;DHT22;114;48.260;10.988;2023-04-25T12:49:04;7.00;58.80
262;DHT22;114;48.260;10.988;2023-04-25T12:51:30;7.00;52.70
262;DHT22;114;48.260;10.988;2023-04-25T12:54:01;7.00;56.60
262;DHT22;114;48.260;10.988;2023-04-25T12:56:27;7.10;51.40
262;DHT22;114;48.260;10.988;2023-04-25T12:58:53;7.30;46.90
262;DHT22;114;48.260;10.988;2023-04-25T13:01:20;7.40;49.30
262;DHT22;114;48.260;10.988;2023-04-25T13:03:46;7.40;41.40
262;DHT22;114;48.260;10.988;2023-04-25T13:06:13;7.40;50.60
262;DHT22;114;48.260;10.988;2023-04-25T13:08:39;7.60;42.60
262;DHT22;114;48.260;10.988;2023-04-25T13:11:06;7.30;44.60
262;DHT22;114;48.260;10.988;2023-04-25T13:13:31;7.10;44.00
262;DHT22;114;48.260;10.988;2023-04-25T13:15:58;7.20;48.50
262;DHT22;114;48.260;10.988;2023-04-25T13:18:23;7.10;48.20
262;DHT22;114;48.260;10.988;2023-04-25T13:20:53;7.30;52.10
262;DHT22;114;48.260;10.988;2023-04-25T13:23:19;7.20;49.50
262;DHT22;114;48.260;10.988;2023-04-25T13:25:46;7.50;49.00
262;DHT22;114;48.260;10.988;2023-04-25T13:28:12;7.50;45.40
262;DHT22;114;48.260;10.988;2023-04-25T13:30:37;7.40;54.30
262;DHT22;114;48.260;10.988;2023-04-25T13:33:03;7.20;53.00
262;DHT22;114;48.260;10.988;2023-04-25T13:35:30;7.20;61.30
262;DHT22;114;48.260;10.988;2023-04-25T13:37:56;7.30;55.40
262;DHT22;114;48.260;10.988;2023-04-25T13:40:22;7.20;55.30
262;DHT22;114;48.260;10.988;2023-04-25T13:42:47;7.40;57.60
262;DHT22;114;48.260;10.988;2023-04-25T13:45:13;7.30;54.30
262;DHT22;114;48.260;10.988;2023-04-25T13:47:39;7.50;52.10
262;DHT22;114;48.260;10.988;2023-04-25T13:50:05;7.40;50.70
262;DHT22;114;48.260;10.988;2023-04-25T13:52:31;7.50;51.80
262;DHT22;114;48.260;10.988;2023-04-25T13:54:57;7.40;54.90
262;DHT22;114;48.260;10.988;2023-04-25T13:57:23;7.60;50.70
262;DHT22;114;48.260;10.988;2023-04-25T13:59:50;7.60;55.30
262;DHT22;114;48.260;10.988;2023-04-25T14:02:16;7.60;46.90
262;DHT22;114;48.260;10.988;2023-04-25T14:04:42;7.70;53.30
262;DHT22;114;48.260;10.988;2023-04-25T14:07:08;7.70;46.60
262;DHT22;114;48.260;10.988;2023-04-25T14:09:34;7.80;41.00
262;DHT22;114;48.260;10.988;2023-04-25T14:12:00;8.00;46.50
262;DHT22;114;48.260;10.988;2023-04-25T14:14:26;7.90;50.20
262;DHT22;114;48.260;10.988;2023-04-25T14:16:52;7.80;47.30
262;DHT22;114;48.260;10.988;2023-04-25T14:19:20;7.90;46.50
262;DHT22;114;48.260;10.988;2023-04-25T14:21:46;8.00;47.80
262;DHT22;114;48.260;10.988;2023-04-25T14:24:12;7.90;55.50
262;DHT22;114;48.260;10.988;2023-04-25T14:26:39;7.50;52.80
262;DHT22;114;48.260;10.988;2023-04-25T14:29:06;7.50;58.80
262;DHT22;114;48.260;10.988;2023-04-25T14:31:37;7.40;60.90
262;DHT22;114;48.260;10.988;2023-04-25T14:34:05;7.30;66.70
262;DHT22;114;48.260;10.988;2023-04-25T14:36:32;7.20;63.10
262;DHT22;114;48.260;10.988;2023-04-25T14:38:59;7.10;61.50
262;DHT22;114;48.260;10.988;2023-04-25T14:41:25;7.10;60.60
262;DHT22;114;48.260;10.988;2023-04-25T14:43:52;7.20;61.70
262;DHT22;114;48.260;10.988;2023-04-25T14:46:22;7.20;58.80
262;DHT22;114;48.260;10.988;2023-04-25T14:48:49;7.30;60.40
262;DHT22;114;48.260;10.988;2023-04-25T14:51:14;7.20;58.70
262;DHT22;114;48.260;10.988;2023-04-25T14:53:41;7.20;60.20
262;DHT22;114;48.260;10.988;2023-04-25T14:56:07;7.50;62.60
262;DHT22;114;48.260;10.988;2023-04-25T14:58:33;7.70;59.10
262;DHT22;114;48.260;10.988;2023-04-25T15:00:59;7.90;57.40
262;DHT22;114;48.260;10.988;2023-04-25T15:03:25;8.00;53.90
262;DHT22;114;48.260;10.988;2023-04-25T15:05:51;7.70;52.10
262;DHT22;114;48.260;10.988;2023-04-25T15:08:17;7.90;59.20
262;DHT22;114;48.260;10.988;2023-04-25T15:10:44;8.00;50.20
262;DHT22;114;48.260;10.988;2023-04-25T15:13:10;8.10;49.50
262;DHT22;114;48.260;10.988;2023-04-25T15:15:36;8.20;43.20
262;DHT22;114;48.260;10.988;2023-04-25T15:18:02;8.10;49.10
262;DHT22;114;48.260;10.988;2023-04-25T15:20:28;8.30;56.90
262;DHT22;114;48.260;10.988;2023-04-25T15:22:53;8.10;45.00
262;DHT22;114;48.260;10.988;2023-04-25T15:25:20;8.00;45.20
262;DHT22;114;48.260;10.988;2023-04-25T15:27:46;8.00;42.30
262;DHT22;114;48.260;10.988;2023-04-25T15:30:15;7.90;48.50
262;DHT22;114;48.260;10.988;2023-04-25T15:32:42;8.00;49.70
262;DHT22;114;48.260;10.988;2023-04-25T15:35:08;8.00;46.10
262;DHT22;114;48.260;10.988;2023-04-25T15:37:35;8.00;48.60
262;DHT22;114;48.260;10.988;2023-04-25T15:40:08;8.10;49.20
262;DHT22;114;48.260;10.988;2023-04-25T15:42:38;8.10;50.30
262;DHT22;114;48.260;10.988;2023-04-25T15:45:05;8.10;46.40
262;DHT22;114;48.260;10.988;2023-04-25T15:47:33;8.00;49.10
262;DHT22;114;48.260;10.988;2023-04-25T15:49:58;7.90;48.90
262;DHT22;114;48.260;10.988;2023-04-25T15:52:24;7.80;44.80
262;DHT22;114;48.260;10.988;2023-04-25T15:54:50;8.00;48.60
262;DHT22;114;48.260;10.988;2023-04-25T15:57:16;8.10;45.80
262;DHT22;114;48.260;10.988;2023-04-25T15:59:41;8.20;43.90
262;DHT22;114;48.260;10.988;2023-04-25T16:02:08;8.30;40.90
262;DHT22;114;48.260;10.988;2023-04-25T16:04:34;8.30;39.40
262;DHT22;114;48.260;10.988;2023-04-25T16:07:03;8.40;41.00
262;DHT22;114;48.260;10.988;2023-04-25T16:09:30;8.70;32.70
262;DHT22;114;48.260;10.988;2023-04-25T16:11:55;9.00;30.70
262;DHT22;114;48.260;10.988;2023-04-25T16:14:21;8.80;23.50
262;DHT22;114;48.260;10.988;2023-04-25T16:16:47;9.00;26.60
262;DHT22;114;48.260;10.988;2023-04-25T16:19:13;9.00;26.30
262;DHT22;114;48.260;10.988;2023-04-25T16:21:38;8.90;25.10
262;DHT22;114;48.260;10.988;2023-04-25T16:24:04;9.00;20.50
262;DHT22;114;48.260;10.988;2023-04-25T16:26:30;9.20;21.50
262;DHT22;114;48.260;10.988;2023-04-25T16:28:56;9.30;23.90
262;DHT22;114;48.260;10.988;2023-04-25T16:31:22;9.10;15.60
262;DHT22;114;48.260;10.988;2023-04-25T16:33:47;9.00;18.60
262;DHT22;114;48.260;10.988;2023-04-25T16:36:13;8.90;20.10
262;DHT22;114;48.260;10.988;2023-04-25T16:38:39;8.80;22.60
262;DHT22;114;48.260;10.988;2023-04-25T16:41:06;8.80;20.80
262;DHT22;114;48.260;10.988;2023-04-25T16:43:32;8.90;20.80
262;DHT22;114;48.260;10.988;2023-04-25T16:45:58;8.80;18.70
262;DHT22;114;48.260;10.988;2023-04-25T16:48:24;8.80;20.10
262;DHT22;114;48.260;10.988;2023-04-25T16:50:51;8.80;19.40
262;DHT22;114;48.260;10.988;2023-04-25T16:53:17;8.80;18.40
262;DHT22;114;48.260;10.988;2023-04-25T16:55:43;8.50;15.20